GOTK

Kédougou Airport

Kédougou, Senegal
METAR GOTK 170300Z 00000KT CAVOK 24/23 Q1012
Observed Flight Rules
Oct-17 @ 03:00 UTC (3 hours ago) Visual Flight Rules
Visibility Clouds
10,000+ meters
  • Clear skies
Temperatures Readings
Current 24°C / 75°F
Dewpoint 23°C / 73°F
Humidity 94%
Altimeter 29.88" Hg
Pressure 1012 hPa
Elevation 167
METAR GOTK 170300Z 00000KT CAVOK 24/23 Q1012
Observed Flight Rules
Oct-17 @ 03:00 UTC
(3 hours ago)
VFR
Clouds
  • Clear skies
Temperature Dewpoint
24°C / 75°F 23°C / 73°F
Humidity Altimeter Pressure
94% 29.88" Hg 1012 hPa